createdAt,value
2022-08-03T00:00:33.736Z,97402.66
2022-08-03T00:03:03.198Z,97400.63
2022-08-03T00:05:33.068Z,97404.41
2022-08-03T00:08:01.352Z,97402.03
2022-08-03T00:10:29.760Z,97404.19
2022-08-03T00:12:57.639Z,97399.75
2022-08-03T00:15:25.857Z,97407.00
2022-08-03T00:17:54.172Z,97409.97
2022-08-03T00:20:23.656Z,97414.06
2022-08-03T00:22:51.824Z,97404.31
2022-08-03T00:25:19.732Z,97405.69
2022-08-03T00:27:48.482Z,97405.69
2022-08-03T00:30:18.780Z,97398.59
2022-08-03T00:32:47.712Z,97399.41
2022-08-03T00:35:36.496Z,97402.06
2022-08-03T00:38:05.607Z,97393.56
2022-08-03T00:40:33.768Z,97392.31
2022-08-03T00:43:02.387Z,97395.88
2022-08-03T00:45:32.279Z,97394.63
2022-08-03T00:48:00.563Z,97394.75
2022-08-03T00:50:30.821Z,97393.97
2022-08-03T00:53:00.894Z,97399.91
2022-08-03T00:55:30.269Z,97391.72
2022-08-03T00:57:59.625Z,97391.53
2022-08-03T01:00:29.016Z,97402.09
2022-08-03T01:02:56.902Z,97396.25
2022-08-03T01:05:25.219Z,97393.69
2022-08-03T01:08:04.550Z,97390.38
2022-08-03T01:10:41.135Z,97391.16
2022-08-03T01:14:01.661Z,97386.44
2022-08-03T01:16:17.021Z,97386.88
2022-08-03T01:19:03.566Z,97384.31
2022-08-03T01:21:35.466Z,97392.63
2022-08-03T01:24:31.708Z,97389.59
2022-08-03T01:27:10.324Z,97390.69
2022-08-03T01:29:58.254Z,97384.56
2022-08-03T01:32:58.714Z,97387.72
2022-08-03T01:35:27.037Z,97382.06
2022-08-03T01:37:58.966Z,97374.34
2022-08-03T01:40:29.433Z,97377.31
2022-08-03T01:43:00.732Z,97370.44
2022-08-03T01:45:34.221Z,97366.97
2022-08-03T01:48:04.155Z,97362.69
2022-08-03T01:50:34.351Z,97360.31
2022-08-03T01:53:03.576Z,97365.94
2022-08-03T01:55:34.298Z,97362.19
2022-08-03T01:58:05.351Z,97366.56
2022-08-03T02:00:38.321Z,97361.81
2022-08-03T02:03:08.026Z,97354.13
2022-08-03T02:05:37.554Z,97355.22
2022-08-03T02:08:09.019Z,97357.38
2022-08-03T02:10:38.668Z,97352.34
2022-08-03T02:13:09.834Z,97353.63
2022-08-03T02:15:40.215Z,97351.75
2022-08-03T02:18:11.024Z,97349.56
2022-08-03T02:20:40.324Z,97346.41
2022-08-03T02:23:08.833Z,97353.78
2022-08-03T02:25:42.829Z,97355.06
2022-08-03T02:28:14.796Z,97349.44
2022-08-03T02:30:53.787Z,97352.09
2022-08-03T02:33:28.223Z,97348.94
2022-08-03T02:35:57.812Z,97353.31
2022-08-03T02:38:32.249Z,97348.28
2022-08-03T02:41:02.653Z,97346.53
2022-08-03T02:43:41.276Z,97348.72
2022-08-03T02:46:26.745Z,97345.88
2022-08-03T02:48:56.989Z,97349.91
2022-08-03T02:51:25.757Z,97348.66
2022-08-03T02:53:55.509Z,97339.97
2022-08-03T02:56:25.396Z,97342.16
2022-08-03T02:58:54.492Z,97346.53
2022-08-03T03:01:25.659Z,97349.22
2022-08-03T03:03:56.463Z,97346.34
2022-08-03T03:06:26.774Z,97349.31
2022-08-03T03:08:59.918Z,97342.19
2022-08-03T03:11:29.074Z,97345.78
2022-08-03T03:13:58.425Z,97341.91
2022-08-03T03:16:30.983Z,97339.72
2022-08-03T03:19:00.121Z,97346.34
2022-08-03T03:21:28.860Z,97338.94
2022-08-03T03:23:57.429Z,97338.44
2022-08-03T03:26:25.315Z,97339.22
2022-08-03T03:28:53.541Z,97345.16
2022-08-03T03:31:21.321Z,97350.34
2022-08-03T03:33:51.027Z,97348.28
2022-08-03T03:36:19.574Z,97348.56
2022-08-03T03:38:47.661Z,97355.13
2022-08-03T03:41:15.653Z,97348.69
2022-08-03T03:43:44.149Z,97349.09
2022-08-03T03:46:13.910Z,97352.06
2022-08-03T03:48:42.073Z,97350.31
2022-08-03T03:51:11.803Z,97344.78
2022-08-03T03:53:39.802Z,97340.53
2022-08-03T03:56:07.877Z,97350.41
2022-08-03T03:58:35.706Z,97352.59
2022-08-03T04:01:03.652Z,97352.81
2022-08-03T04:03:31.848Z,97346.97
2022-08-03T04:06:17.791Z,97345.88
2022-08-03T04:09:05.213Z,97346.66
2022-08-03T04:11:38.767Z,97346.66
2022-08-03T04:15:58.744Z,97342.31
2022-08-03T04:18:29.730Z,97349.22
2022-08-03T04:21:03.949Z,97350.00
2022-08-03T04:23:35.311Z,97349.22
2022-08-03T04:26:04.389Z,97345.47
2022-08-03T04:29:32.338Z,97340.13
2022-08-03T04:32:03.181Z,97341.38
2022-08-03T04:34:31.838Z,97344.34
2022-08-03T04:37:01.959Z,97341.38
2022-08-03T04:39:32.963Z,97345.03
2022-08-03T04:42:08.111Z,97352.16
2022-08-03T04:44:47.927Z,97352.94
2022-08-03T04:47:16.537Z,97356.59
2022-08-03T04:49:45.149Z,97359.75
2022-08-03T04:52:13.490Z,97355.50
2022-08-03T04:54:42.514Z,97359.75
2022-08-03T04:57:23.231Z,97363.09
2022-08-03T05:00:02.663Z,97362.97
2022-08-03T05:02:32.220Z,97365.81
2022-08-03T05:05:00.835Z,97367.13
2022-08-03T05:07:35.674Z,97366.69
2022-08-03T05:10:06.866Z,97366.44
2022-08-03T05:12:43.542Z,97363.03
2022-08-03T05:15:15.735Z,97366.06
2022-08-03T05:17:43.558Z,97364.28
2022-08-03T05:20:12.855Z,97366.69
2022-08-03T05:22:41.211Z,97367.22
2022-08-03T05:25:09.396Z,97374.16
2022-08-03T05:27:45.355Z,97371.00
2022-08-03T05:30:31.532Z,97372.22
2022-08-03T05:33:03.724Z,97379.13
2022-08-03T05:35:55.819Z,97370.81
2022-08-03T05:38:24.092Z,97376.53
2022-08-03T05:41:23.452Z,97378.44
2022-08-03T05:43:45.507Z,97371.25
2022-08-03T05:46:14.647Z,97377.72
2022-08-03T05:48:42.629Z,97377.00
2022-08-03T05:51:12.495Z,97368.50
2022-08-03T05:53:41.695Z,97376.56
2022-08-03T05:56:13.563Z,97370.75
2022-08-03T05:58:45.142Z,97373.50
2022-08-03T06:01:14.804Z,97372.44
2022-08-03T06:03:42.793Z,97377.19
2022-08-03T06:06:11.752Z,97379.75
2022-08-03T06:08:39.704Z,97373.59
2022-08-03T06:11:07.730Z,97381.16
2022-08-03T06:13:35.607Z,97384.47
2022-08-03T06:16:03.992Z,97383.53
2022-08-03T06:18:33.345Z,97391.25
2022-08-03T06:21:14.582Z,97391.44
2022-08-03T06:23:54.095Z,97380.22
2022-08-03T06:26:27.855Z,97383.47
2022-08-03T06:28:57.264Z,97384.50
2022-08-03T06:31:32.860Z,97386.22
2022-08-03T06:34:34.351Z,97385.50
2022-08-03T06:36:58.509Z,97384.06
2022-08-03T06:39:30.076Z,97380.59
2022-08-03T06:41:58.097Z,97380.31
2022-08-03T06:44:26.410Z,97388.06
2022-08-03T06:46:54.227Z,97383.41
2022-08-03T06:49:23.693Z,97390.34
2022-08-03T06:52:04.224Z,97392.53
2022-08-03T06:54:35.634Z,97397.63
2022-08-03T06:57:03.767Z,97390.47
2022-08-03T07:00:08.178Z,97392.38
2022-08-03T07:02:20.386Z,97398.25
2022-08-03T07:04:50.034Z,97396.78
2022-08-03T07:07:19.459Z,97395.22
2022-08-03T07:09:56.962Z,97398.41
2022-08-03T07:12:26.384Z,97399.69
2022-08-03T07:14:58.184Z,97405.78
2022-08-03T07:17:30.829Z,97399.84
2022-08-03T07:20:00.839Z,97397.22
2022-08-03T07:22:29.437Z,97400.91
2022-08-03T07:24:57.852Z,97408.28
2022-08-03T07:27:28.509Z,97402.56
2022-08-03T07:29:56.642Z,97402.66
2022-08-03T07:32:25.285Z,97402.19
2022-08-03T07:34:57.098Z,97398.41
2022-08-03T07:37:29.622Z,97409.53
2022-08-03T07:39:57.945Z,97407.31
2022-08-03T07:42:25.798Z,97400.09
2022-08-03T07:44:53.680Z,97402.78
2022-08-03T07:47:22.539Z,97400.59
2022-08-03T07:49:50.865Z,97403.41
2022-08-03T07:52:36.567Z,97402.28
2022-08-03T07:55:07.548Z,97397.22
2022-08-03T07:57:36.026Z,97401.53
2022-08-03T08:00:07.146Z,97395.84
2022-08-03T08:02:35.000Z,97398.88
2022-08-03T08:05:05.698Z,97398.53
2022-08-03T08:07:35.508Z,97399.41
2022-08-03T08:10:03.425Z,97396.53
2022-08-03T08:12:32.619Z,97396.16
2022-08-03T08:15:00.767Z,97390.50
2022-08-03T08:17:29.062Z,97396.34
2022-08-03T08:19:58.009Z,97398.31
2022-08-03T08:22:30.542Z,97392.88
2022-08-03T08:25:01.366Z,97388.53
2022-08-03T08:28:30.317Z,97394.03
2022-08-03T08:30:21.815Z,97392.28
2022-08-03T08:32:50.182Z,97394.38
2022-08-03T08:35:19.777Z,97387.72
2022-08-03T08:37:50.996Z,97389.75
2022-08-03T08:40:22.215Z,97379.91
2022-08-03T08:42:59.043Z,97394.84
2022-08-03T08:45:28.743Z,97388.56
2022-08-03T08:48:03.525Z,97391.72
2022-08-03T08:50:35.204Z,97396.34
2022-08-03T08:53:04.331Z,97388.16
2022-08-03T08:55:57.817Z,97389.09
2022-08-03T08:58:23.540Z,97392.00
2022-08-03T09:00:52.988Z,97388.13
2022-08-03T09:03:29.406Z,97380.38
2022-08-03T09:06:01.156Z,97384.09
2022-08-03T09:08:30.269Z,97382.63
2022-08-03T09:10:58.199Z,97382.22
2022-08-03T09:13:26.393Z,97377.28
2022-08-03T09:16:17.124Z,97385.63
2022-08-03T09:18:47.360Z,97391.47
2022-08-03T09:21:31.685Z,97381.97
2022-08-03T09:24:03.773Z,97390.69
2022-08-03T09:26:35.761Z,97383.88
2022-08-03T09:29:11.197Z,97383.00
2022-08-03T09:31:46.719Z,97383.03
2022-08-03T09:34:17.864Z,97374.28
2022-08-03T09:36:47.076Z,97376.97
2022-08-03T09:39:16.632Z,97374.53
2022-08-03T09:41:46.022Z,97366.44
2022-08-03T09:44:24.251Z,97382.34
2022-08-03T09:46:55.126Z,97374.06
2022-08-03T09:49:23.574Z,97374.41
2022-08-03T09:52:33.932Z,97372.16
2022-08-03T09:54:39.840Z,97370.00
2022-08-03T09:57:07.826Z,97368.97
2022-08-03T09:59:39.125Z,97372.44
2022-08-03T10:02:22.940Z,97368.94
2022-08-03T10:04:53.007Z,97357.88
2022-08-03T10:07:22.457Z,97364.41
2022-08-03T10:10:30.065Z,97364.34
2022-08-03T10:12:48.790Z,97357.41
2022-08-03T10:16:22.644Z,97350.13
2022-08-03T10:18:06.647Z,97341.38
2022-08-03T10:20:38.860Z,97349.06
2022-08-03T10:23:09.142Z,97337.25
2022-08-03T10:25:40.865Z,97347.88
2022-08-03T10:28:10.815Z,97349.13
2022-08-03T10:30:42.033Z,97345.44
2022-08-03T10:33:50.075Z,97332.41
2022-08-03T10:36:08.387Z,97346.19
2022-08-03T10:38:39.775Z,97333.06
2022-08-03T10:41:09.286Z,97326.78
2022-08-03T10:43:57.671Z,97324.78
2022-08-03T10:46:27.512Z,97325.97
2022-08-03T10:48:58.183Z,97321.66
2022-08-03T10:51:31.917Z,97315.94
2022-08-03T10:54:02.192Z,97319.63
2022-08-03T10:57:06.330Z,97317.97
2022-08-03T11:00:04.147Z,97306.91
2022-08-03T11:03:08.928Z,97309.19
2022-08-03T11:05:43.531Z,97301.16
2022-08-03T11:08:26.466Z,97302.06
2022-08-03T11:10:55.986Z,97303.63
2022-08-03T11:13:26.263Z,97298.41
2022-08-03T11:16:00.160Z,97310.72
2022-08-03T11:18:31.895Z,97296.13
2022-08-03T11:21:01.844Z,97289.03
2022-08-03T11:24:03.264Z,97304.75
2022-08-03T11:26:34.193Z,97293.00
2022-08-03T11:29:29.301Z,97291.66
2022-08-03T11:31:57.413Z,97303.81
2022-08-03T11:34:25.597Z,97297.88
2022-08-03T11:37:27.220Z,97299.59
2022-08-03T11:39:58.100Z,97286.84
2022-08-03T11:42:57.297Z,97282.25
2022-08-03T11:45:28.208Z,97277.00
2022-08-03T11:51:01.122Z,97270.53
2022-08-03T11:53:48.297Z,97286.03
2022-08-03T11:56:29.860Z,97279.47
2022-08-03T11:59:18.149Z,97275.50
2022-08-03T12:01:54.626Z,97270.94
2022-08-03T12:04:24.900Z,97268.97
2022-08-03T12:07:09.636Z,97277.03
2022-08-03T12:09:53.652Z,97269.56
2022-08-03T12:12:31.085Z,97266.50
2022-08-03T12:15:06.857Z,97263.47
2022-08-03T12:17:43.790Z,97253.44
2022-08-03T12:20:34.590Z,97257.41
2022-08-03T12:23:07.853Z,97254.19
2022-08-03T12:25:40.055Z,97255.34
2022-08-03T12:28:28.206Z,97248.59
2022-08-03T12:31:03.940Z,97248.47
2022-08-03T12:33:31.938Z,97254.50
2022-08-03T12:36:08.830Z,97240.28
2022-08-03T12:38:39.534Z,97247.44
2022-08-03T12:41:13.522Z,97240.63
2022-08-03T12:43:49.313Z,97238.28
2022-08-03T12:46:18.487Z,97239.34
2022-08-03T12:49:04.949Z,97241.09
2022-08-03T12:51:34.295Z,97239.16
2022-08-03T12:54:03.261Z,97226.94
2022-08-03T12:56:32.487Z,97234.09
2022-08-03T12:59:01.908Z,97230.41
2022-08-03T13:01:54.872Z,97223.06
2022-08-03T13:04:31.687Z,97218.13
2022-08-03T13:07:03.343Z,97228.03
2022-08-03T13:09:33.328Z,97233.69
2022-08-03T13:12:11.152Z,97227.91
2022-08-03T13:14:39.532Z,97234.25
2022-08-03T13:17:08.039Z,97229.56
2022-08-03T13:19:36.529Z,97233.25
2022-08-03T13:22:12.791Z,97237.16
2022-08-03T13:24:41.324Z,97228.94
2022-08-03T13:28:01.200Z,97227.47
2022-08-03T13:29:59.675Z,97223.03
2022-08-03T13:32:27.618Z,97224.38
2022-08-03T13:34:55.432Z,97227.22
2022-08-03T13:37:23.575Z,97217.44
2022-08-03T13:39:58.893Z,97209.06
2022-08-03T13:42:31.642Z,97219.94
2022-08-03T13:44:59.858Z,97205.53
2022-08-03T13:47:28.102Z,97211.72
2022-08-03T13:50:01.646Z,97194.38
2022-08-03T13:52:31.642Z,97197.56
2022-08-03T13:55:00.218Z,97199.25
2022-08-03T13:58:04.252Z,97201.22
2022-08-03T14:00:27.680Z,97198.00
2022-08-03T14:03:09.499Z,97195.81
2022-08-03T14:05:41.041Z,97189.31
2022-08-03T14:08:09.402Z,97189.50
2022-08-03T14:10:39.462Z,97185.88
2022-08-03T14:13:07.919Z,97187.50
2022-08-03T14:15:37.682Z,97183.13
2022-08-03T14:18:12.820Z,97188.63
2022-08-03T14:20:48.616Z,97183.41
2022-08-03T14:23:20.048Z,97182.69
2022-08-03T14:25:51.447Z,97181.75
2022-08-03T14:28:23.711Z,97171.41
2022-08-03T14:30:54.064Z,97160.81
2022-08-03T14:33:25.397Z,97167.91
2022-08-03T14:35:53.865Z,97168.53
2022-08-03T14:38:23.528Z,97163.94
2022-08-03T14:40:53.178Z,97164.78
2022-08-03T14:43:21.385Z,97163.75
2022-08-03T14:45:52.322Z,97153.94
2022-08-03T14:50:34.818Z,97160.50
2022-08-03T14:51:10.250Z,97154.69
2022-08-03T14:53:38.418Z,97152.91
2022-08-03T14:56:10.342Z,97154.59
2022-08-03T14:58:39.091Z,97158.06
2022-08-03T15:02:02.364Z,97159.13
2022-08-03T15:03:57.984Z,97148.97
2022-08-03T15:06:25.868Z,97142.16
2022-08-03T15:09:22.593Z,97144.50
2022-08-03T15:11:42.258Z,97141.25
2022-08-03T15:14:10.075Z,97146.13
2022-08-03T15:16:41.339Z,97140.13
2022-08-03T15:20:01.028Z,97133.84
2022-08-03T15:22:01.052Z,97138.47
2022-08-03T15:24:30.251Z,97143.38
2022-08-03T15:26:58.085Z,97138.88
2022-08-03T15:30:08.920Z,97136.75
2022-08-03T15:32:14.136Z,97130.28
2022-08-03T15:34:50.468Z,97124.09
2022-08-03T15:37:19.277Z,97132.31
2022-08-03T15:39:59.203Z,97128.94
2022-08-03T15:42:29.115Z,97127.81
2022-08-03T15:44:57.037Z,97126.38
2022-08-03T15:47:25.171Z,97120.97
2022-08-03T15:49:54.410Z,97122.50
2022-08-03T15:52:22.312Z,97112.03
2022-08-03T15:54:50.330Z,97121.09
2022-08-03T15:57:18.697Z,97117.38
2022-08-03T15:59:46.894Z,97115.84
2022-08-03T16:02:14.849Z,97114.19
2022-08-03T16:04:42.722Z,97115.78
2022-08-03T16:07:12.892Z,97111.19
2022-08-03T16:09:43.470Z,97108.78
2022-08-03T16:12:16.416Z,97107.97
2022-08-03T16:14:52.455Z,97102.94
2022-08-03T16:17:21.935Z,97104.75
2022-08-03T16:19:50.770Z,97108.47
2022-08-03T16:22:23.047Z,97099.78
2022-08-03T16:24:55.858Z,97102.81
2022-08-03T16:28:00.340Z,97091.16
2022-08-03T16:30:26.005Z,97093.78
2022-08-03T16:33:00.174Z,97091.44
2022-08-03T16:35:29.657Z,97086.34
2022-08-03T16:38:07.832Z,97082.44
2022-08-03T16:40:41.006Z,97081.75
2022-08-03T16:43:27.065Z,97081.91
2022-08-03T16:45:58.509Z,97085.38
2022-08-03T16:48:36.587Z,97085.91
2022-08-03T16:51:06.578Z,97087.59
2022-08-03T16:54:05.366Z,97091.53
2022-08-03T16:56:33.890Z,97090.19
2022-08-03T16:59:05.640Z,97083.94
2022-08-03T17:01:37.735Z,97080.97
2022-08-03T17:04:06.066Z,97079.13
2022-08-03T17:06:37.948Z,97085.06
2022-08-03T17:09:15.874Z,97094.59
2022-08-03T17:11:48.571Z,97091.16
2022-08-03T17:14:21.860Z,97085.00
2022-08-03T17:16:53.833Z,97082.75
2022-08-03T17:19:25.492Z,97087.16
2022-08-03T17:22:01.658Z,97089.53
2022-08-03T17:24:41.441Z,97088.41
2022-08-03T17:28:41.968Z,97092.75
2022-08-03T17:30:09.476Z,97092.84
2022-08-03T17:32:42.290Z,97092.88
2022-08-03T17:35:12.277Z,97090.63
2022-08-03T17:37:58.260Z,97096.09
2022-08-03T17:40:33.094Z,97093.78
2022-08-03T17:44:13.314Z,97091.50
2022-08-03T17:45:52.837Z,97093.09
2022-08-03T17:48:24.947Z,97102.50
2022-08-03T17:50:56.681Z,97107.19
2022-08-03T17:53:29.687Z,97102.53
2022-08-03T17:56:45.170Z,97106.06
2022-08-03T18:02:29.865Z,97107.69
2022-08-03T18:05:16.603Z,97117.03
2022-08-03T18:07:47.743Z,97112.34
2022-08-03T18:10:22.203Z,97113.50
2022-08-03T18:12:53.994Z,97108.47
2022-08-03T18:15:28.633Z,97113.50
2022-08-03T18:18:02.100Z,97112.75
2022-08-03T18:20:41.076Z,97125.16
2022-08-03T18:23:24.866Z,97116.56
2022-08-03T18:26:00.199Z,97123.91
2022-08-03T18:28:32.085Z,97125.47
2022-08-03T18:31:05.571Z,97125.03
2022-08-03T18:34:17.624Z,97118.78
2022-08-03T18:36:29.690Z,97120.66
2022-08-03T18:39:00.206Z,97118.63
2022-08-03T18:41:32.246Z,97122.88
2022-08-03T18:44:37.633Z,97120.84
2022-08-03T18:47:24.017Z,97123.53
2022-08-03T18:50:01.491Z,97127.75
2022-08-03T18:52:37.305Z,97124.94
2022-08-03T18:55:20.845Z,97125.66
2022-08-03T18:58:00.995Z,97129.88
2022-08-03T19:00:54.240Z,97129.81
2022-08-03T19:03:25.695Z,97133.25
2022-08-03T19:06:19.189Z,97133.59
2022-08-03T19:08:53.252Z,97136.59
2022-08-03T19:11:28.155Z,97135.78
2022-08-03T19:14:00.903Z,97141.84
2022-08-03T19:16:39.333Z,97142.09
2022-08-03T19:19:14.485Z,97135.78
2022-08-03T19:21:42.708Z,97140.69
2022-08-03T19:24:10.646Z,97140.19
2022-08-03T19:26:41.409Z,97146.63
2022-08-03T19:29:15.018Z,97144.63
2022-08-03T19:31:59.444Z,97153.81
2022-08-03T19:34:29.311Z,97154.09
2022-08-03T19:36:58.389Z,97155.13
2022-08-03T19:39:27.026Z,97152.75
2022-08-03T19:42:08.239Z,97157.72
2022-08-03T19:44:42.038Z,97153.88
2022-08-03T19:47:16.899Z,97146.97
2022-08-03T19:50:04.826Z,97147.00
2022-08-03T19:55:48.834Z,97146.75
2022-08-03T19:58:28.355Z,97144.47
2022-08-03T20:00:57.084Z,97148.66
2022-08-03T20:03:27.947Z,97154.78
2022-08-03T20:06:16.984Z,97145.75
2022-08-03T20:08:45.194Z,97145.38
2022-08-03T20:11:18.307Z,97150.00
2022-08-03T20:13:49.861Z,97142.97
2022-08-03T20:16:17.838Z,97150.69
2022-08-03T20:18:45.782Z,97144.84
2022-08-03T20:21:15.806Z,97143.31
2022-08-03T20:24:03.188Z,97142.06
2022-08-03T20:26:35.293Z,97138.13
2022-08-03T20:29:09.157Z,97136.22
2022-08-03T20:31:38.827Z,97138.00
2022-08-03T20:34:07.323Z,97139.09
2022-08-03T20:36:37.218Z,97138.63
2022-08-03T20:39:07.625Z,97139.31
2022-08-03T20:41:37.453Z,97133.44
2022-08-03T20:44:05.747Z,97138.38
2022-08-03T20:46:50.191Z,97137.47
2022-08-03T20:49:23.603Z,97145.84
2022-08-03T20:51:53.600Z,97140.31
2022-08-03T20:54:31.259Z,97135.88
2022-08-03T20:57:04.293Z,97140.47
2022-08-03T20:59:50.287Z,97145.84
2022-08-03T21:02:29.753Z,97141.13
2022-08-03T21:05:03.443Z,97145.34
2022-08-03T21:08:03.915Z,97145.28
2022-08-03T21:10:31.338Z,97147.50
2022-08-03T21:13:05.488Z,97107.28
2022-08-03T21:13:16.204Z,97140.41
2022-08-03T21:16:03.137Z,97144.91
2022-08-03T21:18:43.545Z,97141.63
2022-08-03T21:21:14.963Z,97139.59
2022-08-03T21:23:49.175Z,97149.19
2022-08-03T21:26:19.086Z,97147.56
2022-08-03T21:28:49.670Z,97142.06
2022-08-03T21:31:25.159Z,97146.69
2022-08-03T21:33:55.146Z,97139.28
2022-08-03T21:36:23.191Z,97136.16
2022-08-03T21:38:56.597Z,97140.34
2022-08-03T21:41:26.085Z,97138.78
2022-08-03T21:43:55.651Z,97138.84
2022-08-03T21:46:24.840Z,97133.53
2022-08-03T21:48:56.777Z,97127.78
2022-08-03T21:51:44.752Z,97135.13
2022-08-03T21:54:14.436Z,97139.63
2022-08-03T21:56:44.183Z,97133.03
2022-08-03T21:59:18.225Z,97134.47
2022-08-03T22:01:51.423Z,97136.66
2022-08-03T22:04:50.975Z,97128.84
2022-08-03T22:07:12.150Z,97127.19
2022-08-03T22:09:51.321Z,97132.19
2022-08-03T22:12:22.864Z,97124.38
2022-08-03T22:15:00.401Z,97127.31
2022-08-03T22:17:55.681Z,97131.09
2022-08-03T22:20:19.898Z,97137.28
2022-08-03T22:22:55.344Z,97143.41
2022-08-03T22:25:30.035Z,97146.63
2022-08-03T22:27:59.998Z,97143.88
2022-08-03T22:30:29.619Z,97136.84
2022-08-03T22:32:58.936Z,97139.53
2022-08-03T22:35:28.106Z,97143.38
2022-08-03T22:37:59.462Z,97142.03
2022-08-03T22:40:27.834Z,97141.19
2022-08-03T22:42:56.055Z,97146.44
2022-08-03T22:46:07.617Z,97144.00
2022-08-03T22:48:17.823Z,97144.69
2022-08-03T22:50:47.124Z,97141.31
2022-08-03T22:53:44.652Z,97147.34
2022-08-03T22:56:13.198Z,97141.59
2022-08-03T22:58:41.136Z,97141.41
2022-08-03T23:01:12.518Z,97147.31
2022-08-03T23:03:59.782Z,97150.94
2022-08-03T23:06:34.421Z,97152.31
2022-08-03T23:09:04.385Z,97158.41
2022-08-03T23:11:36.564Z,97157.09
2022-08-03T23:14:11.458Z,97162.50
2022-08-03T23:16:40.947Z,97158.22
2022-08-03T23:19:17.042Z,97165.97
2022-08-03T23:22:02.351Z,97169.72
2022-08-03T23:24:34.566Z,97160.97
2022-08-03T23:27:04.359Z,97158.66
2022-08-03T23:29:32.614Z,97165.06
2022-08-03T23:32:02.751Z,97161.03
2022-08-03T23:34:50.324Z,97162.00
2022-08-03T23:37:19.490Z,97160.66
2022-08-03T23:39:49.285Z,97163.25
2022-08-03T23:42:19.293Z,97160.09
2022-08-03T23:44:48.172Z,97159.56
2022-08-03T23:47:16.249Z,97163.47
2022-08-03T23:49:45.770Z,97167.97
2022-08-03T23:52:20.158Z,97167.88
2022-08-03T23:55:06.026Z,97167.88
2022-08-03T23:57:44.106Z,97169.00
